Terminal Aerodrome Forecast
Issued by NWS

Home | Current Version | Previous Version | Text Only | Print | Product List | Glossary On
Versions: 1 2 3 4 5 6 7 8 9 10 11 12 13 14 15
358
FTUS43 KICT 202341
TAFSLN
TAF
KSLN 202341Z 2100/2124 36008KT P6SM BKN030
     FM210900 06005KT 5SM BR OVC008
     FM211400 15006KT P6SM SCT020 BKN050=

USA.gov is the U.S. government's official web portal to all federal, state and local government web resources and services.